createdAt,value
2023-04-15T00:01:05.217Z,5.22
2023-04-15T00:03:31.936Z,5.50
2023-04-15T00:05:58.615Z,5.15
2023-04-15T00:08:25.138Z,5.07
2023-04-15T00:10:52.359Z,5.60
2023-04-15T00:13:19.038Z,5.85
2023-04-15T00:15:45.768Z,5.03
2023-04-15T00:18:12.278Z,5.30
2023-04-15T00:20:38.800Z,5.55
2023-04-15T00:23:05.464Z,5.45
2023-04-15T00:25:32.325Z,5.22
2023-04-15T00:27:58.870Z,5.47
2023-04-15T00:30:25.610Z,5.40
2023-04-15T00:32:52.755Z,5.28
2023-04-15T00:35:19.598Z,5.55
2023-04-15T00:37:46.572Z,5.57
2023-04-15T00:40:13.983Z,5.83
2023-04-15T00:42:41.146Z,5.60
2023-04-15T00:45:08.497Z,5.75
2023-04-15T00:47:36.389Z,5.57
2023-04-15T00:50:03.404Z,5.47
2023-04-15T00:52:30.131Z,5.63
2023-04-15T00:54:56.953Z,5.70
2023-04-15T00:57:23.591Z,5.80
2023-04-15T00:59:52.654Z,5.50
2023-04-15T01:02:23.282Z,5.65
2023-04-15T01:04:50.578Z,5.73
2023-04-15T01:07:17.139Z,5.78
2023-04-15T01:09:43.877Z,5.63
2023-04-15T01:12:12.927Z,5.85
2023-04-15T01:14:42.186Z,5.85
2023-04-15T01:17:08.962Z,5.90
2023-04-15T01:19:37.247Z,5.82
2023-04-15T01:22:04.218Z,6.10
2023-04-15T01:24:31.840Z,5.72
2023-04-15T01:26:58.458Z,5.93
2023-04-15T01:29:25.064Z,5.83
2023-04-15T01:31:53.427Z,6.20
2023-04-15T01:34:20.104Z,5.82
2023-04-15T01:36:47.081Z,5.70
2023-04-15T01:39:13.935Z,6.30
2023-04-15T01:41:40.613Z,6.00
2023-04-15T01:44:07.159Z,6.10
2023-04-15T01:46:34.734Z,5.65
2023-04-15T01:49:01.603Z,5.80
2023-04-15T01:51:28.384Z,5.53
2023-04-15T01:53:54.901Z,5.87
2023-04-15T01:56:21.417Z,6.07
2023-04-15T01:58:48.122Z,5.80
2023-04-15T02:01:14.814Z,5.80
2023-04-15T02:03:41.313Z,6.35
2023-04-15T02:06:07.993Z,5.73
2023-04-15T02:08:34.716Z,6.03
2023-04-15T02:11:01.363Z,6.05
2023-04-15T02:13:27.885Z,5.82
2023-04-15T02:15:55.241Z,6.10
2023-04-15T02:18:21.899Z,6.00
2023-04-15T02:20:48.571Z,6.20
2023-04-15T02:23:15.177Z,6.38
2023-04-15T02:25:41.698Z,6.10
2023-04-15T02:28:08.232Z,6.70
2023-04-15T02:30:34.888Z,6.57
2023-04-15T02:33:01.897Z,6.60
2023-04-15T02:35:28.659Z,6.75
2023-04-15T02:37:55.546Z,6.18
2023-04-15T02:40:22.257Z,6.93
2023-04-15T02:42:48.885Z,6.93
2023-04-15T02:45:15.484Z,6.80
2023-04-15T02:47:42.118Z,6.60
2023-04-15T02:50:11.245Z,7.30
2023-04-15T02:52:38.148Z,7.30
2023-04-15T02:55:05.261Z,7.30
2023-04-15T02:57:31.777Z,7.05
2023-04-15T02:59:58.313Z,7.38
2023-04-15T03:02:25.111Z,7.55
2023-04-15T03:04:51.815Z,7.63
2023-04-15T03:07:18.632Z,7.40
2023-04-15T03:09:46.193Z,7.80
2023-04-15T03:12:12.648Z,7.18
2023-04-15T03:14:39.371Z,6.88
2023-04-15T03:17:05.836Z,7.82
2023-04-15T03:19:32.435Z,7.63
2023-04-15T03:21:59.032Z,7.78
2023-04-15T03:24:26.592Z,7.50
2023-04-15T03:26:53.318Z,7.93
2023-04-15T03:29:19.971Z,8.18
2023-04-15T03:31:46.590Z,8.07
2023-04-15T03:34:13.156Z,8.40
2023-04-15T03:36:39.845Z,8.38
2023-04-15T03:39:06.325Z,8.23
2023-04-15T03:41:32.850Z,7.80
2023-04-15T03:43:59.498Z,7.90
2023-04-15T03:46:26.063Z,8.40
2023-04-15T03:48:52.712Z,8.10
2023-04-15T03:51:19.396Z,8.38
2023-04-15T03:53:46.089Z,8.77
2023-04-15T03:56:12.704Z,8.47
2023-04-15T03:58:39.215Z,8.20
2023-04-15T04:01:05.843Z,8.65
2023-04-15T04:03:32.646Z,8.60
2023-04-15T04:05:59.495Z,8.60
2023-04-15T04:08:26.119Z,9.10
2023-04-15T04:10:52.971Z,8.40
2023-04-15T04:13:19.509Z,8.98
2023-04-15T04:15:46.043Z,8.68
2023-04-15T04:18:12.486Z,8.75
2023-04-15T04:20:39.012Z,8.90
2023-04-15T04:23:05.711Z,8.77
2023-04-15T04:25:32.406Z,8.73
2023-04-15T04:27:59.631Z,8.30
2023-04-15T04:30:26.238Z,8.90
2023-04-15T04:32:53.241Z,8.30
2023-04-15T04:35:19.839Z,7.90
2023-04-15T04:37:46.441Z,8.57
2023-04-15T04:40:13.414Z,8.77
2023-04-15T04:42:40.494Z,8.95
2023-04-15T04:45:07.718Z,9.07
2023-04-15T04:47:34.347Z,9.18
2023-04-15T04:50:00.982Z,9.18
2023-04-15T04:52:27.592Z,9.55
2023-04-15T04:54:54.313Z,9.02
2023-04-15T04:57:20.871Z,9.17
2023-04-15T04:59:47.410Z,9.95
2023-04-15T05:02:13.994Z,9.07
2023-04-15T05:04:40.572Z,9.10
2023-04-15T05:07:07.098Z,9.80
2023-04-15T05:09:33.551Z,9.73
2023-04-15T05:12:00.104Z,9.45
2023-04-15T05:14:26.701Z,9.63
2023-04-15T05:16:53.280Z,9.95
2023-04-15T05:19:19.948Z,9.77
2023-04-15T05:21:46.629Z,9.37
2023-04-15T05:24:13.147Z,9.70
2023-04-15T05:26:39.762Z,10.27
2023-04-15T05:29:06.386Z,9.95
2023-04-15T05:31:33.115Z,9.30
2023-04-15T05:33:59.670Z,9.40
2023-04-15T05:36:26.177Z,9.30
2023-04-15T05:38:52.826Z,9.55
2023-04-15T05:41:20.023Z,9.05
2023-04-15T05:43:46.626Z,8.85
2023-04-15T05:46:13.187Z,8.77
2023-04-15T05:48:40.061Z,9.07
2023-04-15T05:51:06.687Z,9.02
2023-04-15T05:53:33.318Z,9.95
2023-04-15T05:55:59.770Z,9.60
2023-04-15T05:58:26.394Z,8.50
2023-04-15T06:00:53.216Z,9.55
2023-04-15T06:03:19.990Z,9.05
2023-04-15T06:05:46.561Z,8.38
2023-04-15T06:08:13.084Z,9.00
2023-04-15T06:10:39.584Z,8.50
2023-04-15T06:13:06.224Z,8.50
2023-04-15T06:15:32.838Z,9.13
2023-04-15T06:17:59.504Z,8.35
2023-04-15T06:20:26.172Z,8.75
2023-04-15T06:22:53.061Z,8.70
2023-04-15T06:25:19.577Z,8.85
2023-04-15T06:27:46.330Z,8.02
2023-04-15T06:30:13.045Z,8.38
2023-04-15T06:32:39.836Z,8.80
2023-04-15T06:35:06.676Z,8.00
2023-04-15T06:37:33.205Z,8.27
2023-04-15T06:40:00.280Z,7.85
2023-04-15T06:42:27.075Z,8.20
2023-04-15T06:44:53.693Z,7.90
2023-04-15T06:47:20.235Z,7.60
2023-04-15T06:49:46.780Z,7.28
2023-04-15T06:52:13.431Z,7.72
2023-04-15T06:54:40.038Z,7.82
2023-04-15T06:57:06.668Z,8.02
2023-04-15T06:59:33.395Z,7.33
2023-04-15T07:02:00.212Z,7.63
2023-04-15T07:04:27.081Z,6.85
2023-04-15T07:06:54.500Z,7.60
2023-04-15T07:09:22.721Z,7.60
2023-04-15T07:11:49.252Z,7.47
2023-04-15T07:14:15.902Z,6.82
2023-04-15T07:16:42.379Z,6.95
2023-04-15T07:19:09.336Z,7.13
2023-04-15T07:21:35.866Z,7.22
2023-04-15T07:24:02.515Z,6.70
2023-04-15T07:26:29.350Z,7.63
2023-04-15T07:28:55.974Z,8.05
2023-04-15T07:31:22.887Z,8.40
2023-04-15T07:33:49.425Z,7.53
2023-04-15T07:36:15.860Z,6.97
2023-04-15T07:38:42.458Z,7.18
2023-04-15T07:41:09.301Z,7.38
2023-04-15T07:43:35.957Z,7.57
2023-04-15T07:46:02.536Z,6.65
2023-04-15T07:48:29.341Z,7.07
2023-04-15T07:50:55.891Z,7.00
2023-04-15T07:53:22.539Z,6.45
2023-04-15T07:55:48.965Z,7.15
2023-04-15T07:58:15.642Z,6.93
2023-04-15T08:00:42.363Z,7.20
2023-04-15T08:03:08.955Z,6.97
2023-04-15T08:05:35.647Z,6.47
2023-04-15T08:08:02.070Z,6.65
2023-04-15T08:10:30.463Z,6.80
2023-04-15T08:12:57.162Z,6.43
2023-04-15T08:15:23.931Z,6.20
2023-04-15T08:17:50.469Z,6.13
2023-04-15T08:20:17.135Z,6.00
2023-04-15T08:22:44.062Z,6.15
2023-04-15T08:25:10.623Z,6.40
2023-04-15T08:27:37.338Z,6.57
2023-04-15T08:30:05.421Z,6.82
2023-04-15T08:32:32.312Z,6.78
2023-04-15T08:34:59.172Z,6.78
2023-04-15T08:37:25.869Z,6.83
2023-04-15T08:39:52.538Z,6.68
2023-04-15T08:42:27.749Z,6.82
2023-04-15T08:44:55.547Z,6.82
2023-04-15T08:47:26.530Z,7.10
2023-04-15T08:49:55.434Z,6.40
2023-04-15T08:52:22.108Z,7.45
2023-04-15T08:54:48.935Z,7.35
2023-04-15T08:57:16.146Z,6.72
2023-04-15T08:59:43.465Z,6.90
2023-04-15T09:02:10.160Z,7.13
2023-04-15T09:04:36.742Z,6.85
2023-04-15T09:07:03.390Z,8.20
2023-04-15T09:09:29.935Z,6.80
2023-04-15T09:11:56.527Z,6.97
2023-04-15T09:14:23.192Z,7.07
2023-04-15T09:17:03.067Z,7.10
2023-04-15T09:19:30.613Z,6.28
2023-04-15T09:21:59.559Z,6.63
2023-04-15T09:24:36.026Z,6.50
2023-04-15T09:27:02.978Z,6.57
2023-04-15T09:29:29.648Z,7.30
2023-04-15T09:31:56.272Z,5.97
2023-04-15T09:34:35.825Z,6.07
2023-04-15T09:37:02.329Z,6.40
2023-04-15T09:39:45.816Z,5.93
2023-04-15T09:42:12.415Z,6.20
2023-04-15T09:44:38.936Z,5.70
2023-04-15T09:47:05.880Z,6.80
2023-04-15T09:49:32.490Z,6.63
2023-04-15T09:52:06.028Z,5.77
2023-04-15T09:54:37.587Z,6.25
2023-04-15T09:57:08.839Z,5.93
2023-04-15T09:59:35.875Z,5.75
2023-04-15T10:02:05.128Z,6.20
2023-04-15T10:04:35.293Z,5.67
2023-04-15T10:07:04.881Z,5.75
2023-04-15T10:09:32.462Z,6.47
2023-04-15T10:11:59.134Z,6.43
2023-04-15T10:14:28.504Z,6.00
2023-04-15T10:16:58.655Z,5.70
2023-04-15T10:19:27.712Z,4.88
2023-04-15T10:21:55.428Z,4.90
2023-04-15T10:24:25.249Z,4.70
2023-04-15T10:26:52.649Z,5.00
2023-04-15T10:29:20.624Z,4.90
2023-04-15T10:31:48.289Z,4.55
2023-04-15T10:34:15.896Z,4.43
2023-04-15T10:36:42.573Z,4.70
2023-04-15T10:39:34.353Z,4.35
2023-04-15T10:42:15.850Z,3.40
2023-04-15T10:44:44.955Z,2.70
2023-04-15T10:47:16.765Z,3.03
2023-04-15T10:49:58.868Z,2.70
2023-04-15T10:52:28.142Z,3.03
2023-04-15T10:55:14.576Z,3.10
2023-04-15T10:57:42.416Z,3.35
2023-04-15T11:00:08.939Z,3.60
2023-04-15T11:02:46.126Z,3.20
2023-04-15T11:05:17.725Z,3.60
2023-04-15T11:07:44.350Z,3.70
2023-04-15T11:10:13.872Z,3.70
2023-04-15T11:12:41.399Z,4.13
2023-04-15T11:15:29.492Z,4.28
2023-04-15T11:18:18.236Z,4.22
2023-04-15T11:20:49.875Z,4.10
2023-04-15T11:23:18.833Z,3.20
2023-04-15T11:25:46.083Z,2.97
2023-04-15T11:28:13.250Z,2.60
2023-04-15T11:30:40.857Z,2.28
2023-04-15T11:33:10.000Z,2.43
2023-04-15T11:35:37.021Z,3.20
2023-04-15T11:38:05.253Z,3.78
2023-04-15T11:40:32.375Z,4.03
2023-04-15T11:43:13.985Z,3.90
2023-04-15T11:46:00.021Z,3.13
2023-04-15T11:48:29.265Z,2.88
2023-04-15T11:51:01.374Z,3.13
2023-04-15T11:53:40.399Z,3.80
2023-04-15T11:56:09.465Z,4.43
2023-04-15T11:58:37.831Z,3.60
2023-04-15T12:01:05.692Z,3.13
2023-04-15T12:03:41.445Z,2.95
2023-04-15T12:06:24.083Z,2.67
2023-04-15T12:09:01.070Z,2.60
2023-04-15T12:11:27.609Z,2.30
2023-04-15T12:13:56.565Z,1.65
2023-04-15T12:16:24.539Z,11.63
2023-04-15T12:18:52.841Z,1.58
2023-04-15T12:21:22.038Z,1.88
2023-04-15T12:24:09.081Z,2.00
2023-04-15T12:26:44.668Z,1.70
2023-04-15T12:29:12.883Z,1.95
2023-04-15T12:31:52.333Z,2.30
2023-04-15T12:34:33.420Z,2.53
2023-04-15T12:37:01.647Z,2.47
2023-04-15T12:39:30.921Z,2.60
2023-04-15T12:41:58.554Z,2.88
2023-04-15T12:44:25.329Z,3.05
2023-04-15T12:46:52.617Z,3.00
2023-04-15T12:49:20.580Z,2.70
2023-04-15T12:51:52.348Z,3.40
2023-04-15T12:54:19.181Z,3.38
2023-04-15T12:56:46.860Z,3.58
2023-04-15T12:59:14.484Z,3.70
2023-04-15T13:01:41.376Z,3.40
2023-04-15T13:04:08.870Z,3.40
2023-04-15T13:06:35.970Z,3.63
2023-04-15T13:09:05.291Z,3.95
2023-04-15T13:11:33.315Z,3.67
2023-04-15T13:14:08.338Z,3.80
2023-04-15T13:16:35.519Z,3.67
2023-04-15T13:19:03.140Z,3.78
2023-04-15T13:21:30.468Z,3.92
2023-04-15T13:23:57.167Z,3.50
2023-04-15T13:26:23.925Z,3.70
2023-04-15T13:28:50.653Z,3.58
2023-04-15T13:31:17.282Z,3.42
2023-04-15T13:33:44.014Z,3.80
2023-04-15T13:36:10.672Z,3.40
2023-04-15T13:38:37.298Z,3.70
2023-04-15T13:41:03.907Z,3.20
2023-04-15T13:43:30.561Z,3.10
2023-04-15T13:45:57.339Z,3.30
2023-04-15T13:48:24.055Z,3.05
2023-04-15T13:50:50.698Z,2.80
2023-04-15T13:53:17.543Z,2.50
2023-04-15T13:55:44.066Z,2.70
2023-04-15T13:58:11.712Z,2.15
2023-04-15T14:00:38.227Z,2.22
2023-04-15T14:03:05.106Z,2.10
2023-04-15T14:05:33.260Z,2.20
2023-04-15T14:08:00.282Z,2.20
2023-04-15T14:10:27.073Z,2.10
2023-04-15T14:12:53.804Z,2.30
2023-04-15T14:15:21.416Z,2.10
2023-04-15T14:17:48.192Z,2.10
2023-04-15T14:20:16.379Z,2.00
2023-04-15T14:22:43.952Z,1.80
2023-04-15T14:25:17.225Z,2.10
2023-04-15T14:27:46.602Z,2.20
2023-04-15T14:30:13.492Z,2.20
2023-04-15T14:32:40.764Z,2.00
2023-04-15T14:35:07.475Z,1.92
2023-04-15T14:37:34.116Z,2.13
2023-04-15T14:40:00.862Z,2.20
2023-04-15T14:42:27.485Z,2.20
2023-04-15T14:44:54.087Z,1.95
2023-04-15T14:47:20.795Z,2.08
2023-04-15T14:49:47.537Z,1.83
2023-04-15T14:52:14.237Z,2.10
2023-04-15T14:54:40.992Z,1.83
2023-04-15T14:57:07.732Z,1.40
2023-04-15T14:59:34.296Z,1.70
2023-04-15T15:02:01.027Z,1.70
2023-04-15T15:04:27.930Z,1.80
2023-04-15T15:06:54.930Z,1.80
2023-04-15T15:09:21.653Z,1.80
2023-04-15T15:11:48.221Z,1.80
2023-04-15T15:14:15.063Z,2.10
2023-04-15T15:16:41.598Z,1.90
2023-04-15T15:19:08.339Z,1.80
2023-04-15T15:21:35.282Z,1.80
2023-04-15T15:24:02.132Z,1.90
2023-04-15T15:26:28.838Z,1.52
2023-04-15T15:28:55.429Z,1.70
2023-04-15T15:31:22.217Z,1.83
2023-04-15T15:33:48.889Z,1.73
2023-04-15T15:36:16.344Z,1.52
2023-04-15T15:38:42.986Z,2.08
2023-04-15T15:41:09.677Z,1.30
2023-04-15T15:43:36.259Z,1.70
2023-04-15T15:46:03.602Z,1.40
2023-04-15T15:48:30.413Z,1.70
2023-04-15T15:50:57.175Z,1.67
2023-04-15T15:53:23.873Z,1.53
2023-04-15T15:55:51.501Z,1.65
2023-04-15T15:58:19.748Z,1.60
2023-04-15T16:00:46.429Z,1.60
2023-04-15T16:03:13.086Z,1.70
2023-04-15T16:05:39.666Z,2.00
2023-04-15T16:08:06.675Z,2.20
2023-04-15T16:10:33.693Z,2.08
2023-04-15T16:13:00.715Z,2.00
2023-04-15T16:15:27.479Z,2.10
2023-04-15T16:17:54.207Z,2.00
2023-04-15T16:20:20.852Z,2.30
2023-04-15T16:22:47.642Z,2.10
2023-04-15T16:25:14.513Z,2.10
2023-04-15T16:27:57.107Z,1.90
2023-04-15T16:30:27.960Z,2.20
2023-04-15T16:32:54.913Z,2.00
2023-04-15T16:35:21.636Z,2.40
2023-04-15T16:37:48.236Z,2.28
2023-04-15T16:40:15.442Z,2.20
2023-04-15T16:42:42.077Z,2.00
2023-04-15T16:45:09.078Z,2.03
2023-04-15T16:47:35.672Z,1.90
2023-04-15T16:50:02.350Z,1.90
2023-04-15T16:52:29.248Z,2.00
2023-04-15T16:54:56.239Z,1.70
2023-04-15T16:57:22.741Z,2.40
2023-04-15T16:59:51.619Z,2.08
2023-04-15T17:02:18.392Z,1.83
2023-04-15T17:04:45.144Z,1.77
2023-04-15T17:07:11.554Z,1.90
2023-04-15T17:09:39.463Z,2.00
2023-04-15T17:12:06.714Z,2.40
2023-04-15T17:14:33.464Z,2.70
2023-04-15T17:17:00.209Z,2.40
2023-04-15T17:19:26.833Z,2.10
2023-04-15T17:21:54.905Z,2.33
2023-04-15T17:24:21.917Z,2.88
2023-04-15T17:26:48.526Z,3.10
2023-04-15T17:29:15.024Z,2.63
2023-04-15T17:31:41.769Z,2.90
2023-04-15T17:34:10.310Z,3.00
2023-04-15T17:36:38.406Z,3.13
2023-04-15T17:39:05.073Z,3.05
2023-04-15T17:41:31.842Z,3.00
2023-04-15T17:43:58.424Z,3.30
2023-04-15T17:46:25.183Z,3.30
2023-04-15T17:48:51.697Z,3.42
2023-04-15T17:51:18.276Z,3.60
2023-04-15T17:53:44.916Z,3.20
2023-04-15T17:56:11.569Z,3.53
2023-04-15T17:58:38.291Z,3.30
2023-04-15T18:01:04.891Z,3.90
2023-04-15T18:03:31.538Z,3.38
2023-04-15T18:05:58.265Z,3.33
2023-04-15T18:08:24.904Z,3.70
2023-04-15T18:10:51.584Z,3.80
2023-04-15T18:13:18.207Z,4.32
2023-04-15T18:15:47.198Z,3.90
2023-04-15T18:18:13.940Z,3.95
2023-04-15T18:20:40.588Z,4.73
2023-04-15T18:23:07.638Z,3.97
2023-04-15T18:25:34.454Z,3.97
2023-04-15T18:28:01.191Z,3.85
2023-04-15T18:30:27.747Z,3.50
2023-04-15T18:32:54.320Z,3.43
2023-04-15T18:35:20.972Z,4.25
2023-04-15T18:37:47.700Z,3.65
2023-04-15T18:40:14.413Z,3.70
2023-04-15T18:42:41.005Z,3.22
2023-04-15T18:45:07.878Z,3.07
2023-04-15T18:47:34.508Z,3.28
2023-04-15T18:50:01.048Z,2.90
2023-04-15T18:52:27.567Z,2.80
2023-04-15T18:54:54.276Z,2.83
2023-04-15T18:57:25.980Z,2.87
2023-04-15T18:59:59.169Z,2.88
2023-04-15T19:02:25.950Z,2.92
2023-04-15T19:04:52.652Z,2.80
2023-04-15T19:07:19.169Z,2.72
2023-04-15T19:09:45.807Z,2.60
2023-04-15T19:12:12.362Z,2.40
2023-04-15T19:14:38.909Z,2.30
2023-04-15T19:17:05.591Z,2.42
2023-04-15T19:19:32.267Z,2.50
2023-04-15T19:21:58.916Z,2.37
2023-04-15T19:24:25.605Z,2.40
2023-04-15T19:26:52.217Z,2.40
2023-04-15T19:29:19.158Z,2.90
2023-04-15T19:31:45.874Z,2.88
2023-04-15T19:34:12.429Z,3.20
2023-04-15T19:36:39.131Z,3.13
2023-04-15T19:39:06.118Z,3.30
2023-04-15T19:41:33.050Z,3.58
2023-04-15T19:44:00.295Z,3.22
2023-04-15T19:46:27.503Z,3.10
2023-04-15T19:48:55.291Z,2.80
2023-04-15T19:51:21.888Z,2.85
2023-04-15T19:53:49.626Z,2.72
2023-04-15T19:56:16.274Z,2.55
2023-04-15T19:58:42.930Z,2.73
2023-04-15T20:01:09.587Z,2.80
2023-04-15T20:03:36.372Z,2.40
2023-04-15T20:06:03.450Z,2.35
2023-04-15T20:08:29.947Z,2.58
2023-04-15T20:10:57.084Z,2.00
2023-04-15T20:13:23.714Z,2.42
2023-04-15T20:15:50.355Z,2.33
2023-04-15T20:18:17.036Z,2.10
2023-04-15T20:20:43.853Z,2.80
2023-04-15T20:23:10.499Z,2.60
2023-04-15T20:25:38.255Z,2.00
2023-04-15T20:28:04.915Z,2.60
2023-04-15T20:30:31.734Z,2.20
2023-04-15T20:32:58.432Z,2.42
2023-04-15T20:35:25.150Z,2.47
2023-04-15T20:37:51.852Z,2.60
2023-04-15T20:40:18.714Z,2.50
2023-04-15T20:42:45.333Z,2.72
2023-04-15T20:45:11.880Z,2.38
2023-04-15T20:47:38.683Z,2.40
2023-04-15T20:50:05.764Z,2.50
2023-04-15T20:52:32.515Z,2.50
2023-04-15T20:54:59.039Z,2.60
2023-04-15T20:57:25.924Z,2.30
2023-04-15T20:59:52.647Z,1.90
2023-04-15T21:02:19.247Z,2.40
2023-04-15T21:04:46.055Z,2.22
2023-04-15T21:07:12.527Z,2.30
2023-04-15T21:09:39.088Z,2.40
2023-04-15T21:12:06.086Z,2.27
2023-04-15T21:14:32.758Z,1.95
2023-04-15T21:16:59.649Z,2.40
2023-04-15T21:19:26.590Z,2.20
2023-04-15T21:21:53.209Z,2.05
2023-04-15T21:24:19.819Z,2.23
2023-04-15T21:26:47.679Z,2.25
2023-04-15T21:29:14.544Z,1.75
2023-04-15T21:31:41.617Z,1.85
2023-04-15T21:34:08.735Z,1.80
2023-04-15T21:36:36.767Z,2.20
2023-04-15T21:39:04.264Z,2.25
2023-04-15T21:41:31.289Z,2.28
2023-04-15T21:43:58.020Z,2.30
2023-04-15T21:46:25.765Z,2.40
2023-04-15T21:48:59.868Z,2.80
2023-04-15T21:51:26.640Z,2.78
2023-04-15T21:53:53.434Z,2.22
2023-04-15T21:56:20.003Z,2.40
2023-04-15T21:58:46.712Z,2.03
2023-04-15T22:01:13.392Z,2.07
2023-04-15T22:03:40.088Z,1.70
2023-04-15T22:06:06.684Z,1.92
2023-04-15T22:08:41.227Z,2.08
2023-04-15T22:11:08.789Z,2.20
2023-04-15T22:13:35.651Z,2.70
2023-04-15T22:16:05.043Z,2.42
2023-04-15T22:18:31.642Z,2.40
2023-04-15T22:20:58.261Z,3.08
2023-04-15T22:23:25.001Z,2.50
2023-04-15T22:25:51.604Z,2.40
2023-04-15T22:28:18.290Z,1.75
2023-04-15T22:30:44.969Z,2.47
2023-04-15T22:33:11.571Z,2.15
2023-04-15T22:35:38.138Z,2.10
2023-04-15T22:38:05.122Z,2.00
2023-04-15T22:40:31.793Z,1.85
2023-04-15T22:42:58.487Z,1.90
2023-04-15T22:45:28.017Z,1.77
2023-04-15T22:47:54.910Z,1.60
2023-04-15T22:50:21.552Z,1.80
2023-04-15T22:52:48.364Z,1.70
2023-04-15T22:55:15.310Z,1.90
2023-04-15T22:57:42.042Z,1.83
2023-04-15T23:00:09.244Z,1.90
2023-04-15T23:02:36.267Z,2.30
2023-04-15T23:05:04.193Z,1.70
2023-04-15T23:07:38.245Z,1.85
2023-04-15T23:10:05.605Z,1.60
2023-04-15T23:12:32.301Z,1.58
2023-04-15T23:14:59.290Z,1.60
2023-04-15T23:17:26.008Z,1.50
2023-04-15T23:19:52.555Z,1.50
2023-04-15T23:22:19.062Z,1.52
2023-04-15T23:24:45.579Z,1.58
2023-04-15T23:27:12.156Z,1.40
2023-04-15T23:29:38.777Z,1.65
2023-04-15T23:32:05.994Z,1.92
2023-04-15T23:34:32.767Z,1.77
2023-04-15T23:36:59.310Z,1.75
2023-04-15T23:39:25.925Z,1.90
2023-04-15T23:41:53.092Z,2.30
2023-04-15T23:44:20.154Z,2.10
2023-04-15T23:46:46.668Z,2.40
2023-04-15T23:49:13.406Z,2.70
2023-04-15T23:51:40.290Z,2.50
2023-04-15T23:54:07.095Z,2.13
2023-04-15T23:56:33.591Z,2.10
2023-04-15T23:59:00.080Z,1.80
